Wednesday, May 23, 2018, 9:03 AM EDT
Back to Local

KVSF, Hartness State Airport

Location: Perkinsville, VT, United States Lat: 43.35
Local Time: 9:03 AM EDT (13:03 GMT) Lon: -72.517
Time Zone: US/Eastern Elev: 577 ft

Show me the last for .
Show Decoded

2018-05-23 07:54 METAR KVSF 231154Z AUTO 30005KT 10SM FEW020 16/13 A2992 RMK AO2 SLP132 60002
                 70016 T01610128 10161 20117 53016 =
2018-05-23 06:54 METAR KVSF 231054Z AUTO 00000KT 10SM CLR 13/13 A2990 RMK AO2 SLP127 T01280128 =
2018-05-23 06:11 METAR KVSF 231011Z AUTO 00000KT 10SM SCT017 BKN033 12/12 A2988 RMK AO2 T01170117
                 =
2018-05-23 05:54 METAR KVSF 230954Z AUTO 26005KT 10SM SCT014 BKN021 OVC027 12/12 A2989 RMK AO2
                 SLP121 T01170117 =
2018-05-23 05:05 METAR KVSF 230905Z AUTO 00000KT 10SM FEW004 BKN019 OVC023 12/12 A2987 RMK AO2
                 T01170117 =
2018-05-23 04:54 METAR KVSF 230854Z AUTO 00000KT 10SM SCT003 BKN010 OVC022 12/12 A2987 RMK AO2
                 RAB13E32 SLP117 P0001 60002 T01170117 55001 =
2018-05-23 04:50 METAR KVSF 230850Z AUTO 00000KT 10SM SCT003 BKN010 OVC024 12/12 A2987 RMK AO2
                 RAB13E32 P0001 =
2018-05-23 04:41 METAR KVSF 230841Z AUTO 00000KT 10SM BKN003 BKN010 OVC025 12/12 A2987 RMK AO2
                 RAB13E32 P0001 T01170117 =
2018-05-23 04:21 METAR KVSF 230821Z AUTO 00000KT 5SM RA BR SCT003 OVC018 12/12 A2987 RMK AO2
                 RAB13 P0001 T01170117 =
2018-05-23 03:54 METAR KVSF 230754Z AUTO 00000KT 7SM OVC018 12/12 A2987 RMK AO2 RAE02B19E47
                 SLP116 P0001 T01170117 =
2018-05-23 03:18 METAR KVSF 230718Z AUTO 00000KT 10SM FEW004 SCT010 OVC022 12/12 A2987 RMK AO2
                 RAE02 P0000 T01170117 =
2018-05-23 02:54 METAR KVSF 230654Z AUTO 00000KT 7SM -RA FEW010 OVC022 12/12 A2987 RMK AO2
                 RAB01E11B50 SLP118 P0000 T01170117 =
2018-05-23 01:54 METAR KVSF 230554Z AUTO 00000KT 10SM OVC023 12/11 A2988 RMK AO2 SLP118 60001
                 T01170111 10139 20117 58013 =
2018-05-23 01:29 METAR KVSF 230529Z AUTO 00000KT 10SM SCT011 OVC021 12/11 A2988 RMK AO2 T01170111
                 =
2018-05-23 01:06 METAR KVSF 230506Z AUTO 00000KT 10SM BKN011 BKN016 OVC022 12/11 A2989 RMK AO2
                 T01170111 =
2018-05-23 00:54 METAR KVSF 230454Z AUTO 00000KT 10SM FEW011 BKN016 OVC024 12/11 A2989 RMK AO2
                 RAB18E28 SLP124 P0000 T01170111 401610089 =
2018-05-23 00:28 METAR KVSF 230428Z AUTO 00000KT 10SM BKN015 OVC024 12/11 A2991 RMK AO2 RAB18E28
                 P0000 T01170106 =
2018-05-23 00:09 METAR KVSF 230409Z AUTO 12003KT 10SM OVC014 12/11 A2991 RMK AO2 T01170106 =
2018-05-22 23:54 METAR KVSF 230354Z AUTO 00000KT 10SM BKN016 BKN020 OVC026 12/11 A2991 RMK AO2
                 RAB14E37 SLP128 P0001 T01170106 =
2018-05-22 22:54 METAR KVSF 230254Z AUTO 18004KT 10SM OVC027 13/11 A2991 RMK AO2 SLP131 T01280106
                 58014 =
2018-05-22 22:17 METAR KVSF 230217Z AUTO 17003KT 10SM OVC029 13/11 A2993 RMK AO2 T01280106 =
2018-05-22 21:54 METAR KVSF 230154Z AUTO 17006KT 10SM SCT019 OVC031 13/11 A2993 RMK AO2 SLP137
                 T01280111 =
2018-05-22 21:26 METAR KVSF 230126Z AUTO 16005KT 10SM BKN019 OVC033 13/11 A2994 RMK AO2 T01330111
                 =
2018-05-22 20:54 METAR KVSF 230054Z AUTO 17006KT 10SM OVC035 13/11 A2995 RMK AO2 SLP142 T01330111
                 =
2018-05-22 20:02 METAR KVSF 230002Z AUTO 17005KT 10SM SCT026 OVC036 14/12 A2996 RMK AO2 T01390117
                 =
2018-05-22 19:54 METAR KVSF 222354Z AUTO 17008KT 10SM BKN026 OVC036 14/12 A2996 RMK AO2 SLP145
                 60004 T01390117 10156 20139 56013 =
2018-05-22 19:49 METAR KVSF 222349Z AUTO 19006KT 10SM BKN026 OVC036 14/12 A2996 RMK AO2 =
2018-05-22 18:54 METAR KVSF 222254Z AUTO 15006KT 10SM OVC041 14/13 A2998 RMK AO2 RAB2158E16
                 SLP154 P0000 T01440128 =
2018-05-22 17:54 METAR KVSF 222154Z AUTO 00000KT 10SM OVC055 15/13 A2999 RMK AO2 RAB19E28 SLP158
                 P0000 T01500133 =
2018-05-22 16:54 METAR KVSF 222054Z AUTO 16005KT 10SM SCT015 BKN041 OVC050 15/14 A3002 RMK AO2
                 RAE34 SLP167 P0000 60004 T01500144 58027 =
2018-05-22 15:54 METAR KVSF 221954Z AUTO 11003KT 8SM -RA SCT047 OVC060 15/14 A3005 RMK AO2
                 RAE02B23 SLP177 P0001 T01500139 =
2018-05-22 14:54 METAR KVSF 221854Z AUTO 29003KT 8SM -RA FEW046 OVC070 15/13 A3008 RMK AO2 RAB01
                 SLP188 P0003 T01500133 =
2018-05-22 13:54 METAR KVSF 221754Z AUTO 23003KT 10SM OVC085 15/13 A3010 RMK AO2 RAE53 SLP195
                 P0000 60009 T01500133 10161 20117 58016 =
2018-05-22 12:54 METAR KVSF 221654Z AUTO 00000KT 10SM -RA OVC095 15/13 A3014 RMK AO2 SLP207 P0004
                 T01500133 =
2018-05-22 11:54 METAR KVSF 221554Z AUTO 00000KT 5SM -RA BR OVC080 14/13 A3017 RMK AO2 SLP216
                 P0005 T01440133 =
2018-05-22 10:54 METAR KVSF 221454Z AUTO 00000KT 10SM -RA FEW080 OVC095 16/12 A3015 RMK AO2 RAB44
                 SLP211 P0000 60000 T01610117 58008 =
2018-05-22 09:54 METAR KVSF 221354Z AUTO 00000KT 10SM CLR 15/11 A3016 RMK AO2 SLP213 T01500111 =

Support USWX by starting your Amazon purchase here.